createdAt,value
2019-04-30T00:02:16.380Z,8.69
2019-04-30T00:04:47.194Z,8.70
2019-04-30T00:07:15.473Z,8.63
2019-04-30T00:09:41.253Z,8.74
2019-04-30T00:12:07.338Z,8.79
2019-04-30T00:14:38.589Z,8.73
2019-04-30T00:17:01.420Z,8.73
2019-04-30T00:19:27.225Z,8.73
2019-04-30T00:21:56.864Z,8.75
2019-04-30T00:26:55.149Z,8.74
2019-04-30T00:29:26.975Z,8.73
2019-04-30T00:31:49.033Z,8.79
2019-04-30T00:34:15.245Z,8.74
2019-04-30T00:36:41.138Z,8.81
2019-04-30T00:39:13.191Z,8.81
2019-04-30T00:41:35.348Z,8.82
2019-04-30T00:44:01.322Z,8.78
2019-04-30T00:46:29.336Z,8.79
2019-04-30T00:48:56.789Z,8.78
2019-04-30T00:51:22.537Z,8.78
2019-04-30T00:53:51.384Z,8.84
2019-04-30T00:56:19.879Z,8.90
2019-04-30T00:58:45.237Z,8.91
2019-04-30T01:01:15.734Z,8.88
2019-04-30T01:03:46.383Z,8.87
2019-04-30T01:06:11.247Z,8.81
2019-04-30T01:08:37.337Z,8.84
2019-04-30T01:11:09.414Z,8.95
2019-04-30T01:13:33.204Z,9.02
2019-04-30T01:15:58.991Z,8.95
2019-04-30T01:18:30.586Z,8.88
2019-04-30T01:20:52.713Z,8.90
2019-04-30T01:23:19.607Z,8.89
2019-04-30T01:25:49.964Z,8.84
2019-04-30T01:28:16.336Z,8.85
2019-04-30T01:30:41.543Z,8.91
2019-04-30T01:33:09.026Z,8.96
2019-04-30T01:35:34.971Z,9.00
2019-04-30T01:38:04.086Z,8.98
2019-04-30T01:40:28.684Z,8.99
2019-04-30T01:42:54.508Z,8.92
2019-04-30T01:45:23.106Z,8.99
2019-04-30T01:47:49.616Z,9.00
2019-04-30T01:50:15.795Z,8.91
2019-04-30T01:52:53.683Z,8.93
2019-04-30T01:55:22.934Z,8.95
2019-04-30T01:58:00.089Z,8.86
2019-04-30T02:00:39.995Z,8.79
2019-04-30T02:03:05.897Z,8.81
2019-04-30T02:05:31.681Z,8.83
2019-04-30T02:07:58.497Z,8.82
2019-04-30T02:10:24.399Z,8.88
2019-04-30T02:12:50.160Z,8.97
2019-04-30T02:15:16.341Z,8.99
2019-04-30T02:17:44.906Z,8.95
2019-04-30T02:20:11.109Z,8.97
2019-04-30T02:22:41.271Z,9.06
2019-04-30T02:25:09.475Z,9.07
2019-04-30T02:27:35.504Z,9.06
2019-04-30T02:30:02.679Z,9.13
2019-04-30T02:32:30.487Z,9.20
2019-04-30T02:35:01.231Z,9.16
2019-04-30T02:37:30.112Z,9.27
2019-04-30T02:39:56.015Z,9.25
2019-04-30T02:42:22.363Z,9.31
2019-04-30T02:44:50.369Z,9.27
2019-04-30T02:47:16.856Z,9.22
2019-04-30T02:49:43.542Z,9.24
2019-04-30T02:52:09.849Z,9.19
2019-04-30T02:54:39.449Z,9.26
2019-04-30T02:57:06.430Z,9.25
2019-04-30T02:59:32.267Z,9.24
2019-04-30T03:01:59.772Z,9.29
2019-04-30T03:04:25.836Z,9.20
2019-04-30T03:06:51.931Z,9.22
2019-04-30T03:09:20.064Z,9.30
2019-04-30T03:11:45.451Z,9.22
2019-04-30T03:14:11.255Z,9.32
2019-04-30T03:16:44.718Z,9.31
2019-04-30T03:19:29.603Z,9.20
2019-04-30T03:22:06.800Z,9.22
2019-04-30T03:24:32.640Z,9.19
2019-04-30T03:26:59.417Z,9.33
2019-04-30T03:29:25.574Z,9.36
2019-04-30T03:31:52.585Z,9.31
2019-04-30T03:34:25.201Z,9.20
2019-04-30T03:36:46.556Z,9.26
2019-04-30T03:39:12.364Z,9.36
2019-04-30T03:41:41.392Z,9.39
2019-04-30T03:44:17.108Z,9.36
2019-04-30T03:46:34.123Z,9.33
2019-04-30T03:49:00.232Z,9.33
2019-04-30T03:51:26.297Z,9.36
2019-04-30T03:53:52.095Z,9.45
2019-04-30T03:56:22.424Z,9.45
2019-04-30T03:58:45.603Z,9.24
2019-04-30T04:01:22.432Z,9.51
2019-04-30T04:04:05.271Z,9.48
2019-04-30T04:06:33.247Z,9.48
2019-04-30T04:09:01.223Z,9.48
2019-04-30T04:11:29.797Z,9.47
2019-04-30T04:13:55.834Z,9.46
2019-04-30T04:16:21.918Z,9.40
2019-04-30T04:18:50.057Z,9.45
2019-04-30T04:21:16.882Z,9.52
2019-04-30T04:23:43.153Z,9.50
2019-04-30T04:26:09.571Z,9.50
2019-04-30T04:28:35.476Z,9.51
2019-04-30T04:31:01.330Z,9.54
2019-04-30T04:33:29.576Z,9.16
2019-04-30T04:35:55.049Z,9.46
2019-04-30T04:38:20.857Z,9.45
2019-04-30T04:40:46.631Z,9.44
2019-04-30T04:43:12.412Z,9.49
2019-04-30T04:45:40.419Z,9.55
2019-04-30T04:48:06.443Z,9.55
2019-04-30T04:50:32.243Z,9.55
2019-04-30T04:52:59.492Z,9.57
2019-04-30T04:55:25.380Z,9.55
2019-04-30T04:57:51.439Z,9.62
2019-04-30T05:00:19.469Z,9.58
2019-04-30T05:02:49.941Z,9.60
2019-04-30T05:05:16.062Z,9.55
2019-04-30T05:07:41.873Z,9.56
2019-04-30T05:10:09.183Z,9.59
2019-04-30T05:12:37.379Z,9.66
2019-04-30T05:15:04.138Z,9.68
2019-04-30T05:17:32.134Z,9.65
2019-04-30T05:19:58.688Z,9.71
2019-04-30T05:22:24.681Z,9.69
2019-04-30T05:24:50.853Z,9.70
2019-04-30T05:27:16.719Z,9.69
2019-04-30T05:29:42.528Z,9.66
2019-04-30T05:32:09.502Z,9.72
2019-04-30T05:34:35.370Z,9.66
2019-04-30T05:37:01.147Z,9.72
2019-04-30T05:39:28.416Z,9.69
2019-04-30T05:41:54.319Z,9.79
2019-04-30T05:44:20.122Z,9.76
2019-04-30T05:46:45.953Z,9.69
2019-04-30T05:49:11.791Z,9.68
2019-04-30T05:51:38.785Z,9.66
2019-04-30T05:54:04.974Z,9.52
2019-04-30T05:56:30.785Z,9.45
2019-04-30T05:58:56.589Z,9.46
2019-04-30T06:01:24.279Z,9.42
2019-04-30T06:03:50.197Z,9.35
2019-04-30T06:06:16.021Z,9.37
2019-04-30T06:08:46.189Z,9.46
2019-04-30T06:11:13.894Z,9.55
2019-04-30T06:13:50.647Z,9.47
2019-04-30T06:16:18.843Z,9.42
2019-04-30T06:18:44.738Z,9.52
2019-04-30T06:21:11.050Z,9.52
2019-04-30T06:23:36.864Z,9.61
2019-04-30T06:26:09.650Z,9.58
2019-04-30T06:28:30.975Z,9.61
2019-04-30T06:30:59.028Z,9.59
2019-04-30T06:33:24.895Z,9.67
2019-04-30T06:35:51.103Z,9.54
2019-04-30T06:38:18.470Z,9.49
2019-04-30T06:40:44.397Z,9.53
2019-04-30T06:43:10.365Z,9.55
2019-04-30T06:45:36.291Z,9.52
2019-04-30T06:48:02.584Z,9.50
2019-04-30T06:50:29.288Z,9.50
2019-04-30T06:52:58.779Z,9.62
2019-04-30T06:55:23.492Z,9.72
2019-04-30T06:57:49.824Z,9.74
2019-04-30T07:00:15.851Z,9.78
2019-04-30T07:02:41.670Z,9.74
2019-04-30T07:05:09.942Z,9.68
2019-04-30T07:07:39.240Z,9.70
2019-04-30T07:10:10.113Z,9.76
2019-04-30T07:12:42.054Z,9.80
2019-04-30T07:15:08.707Z,9.87
2019-04-30T07:17:34.566Z,9.85
2019-04-30T07:20:00.368Z,9.80
2019-04-30T07:22:39.083Z,9.90
2019-04-30T07:24:54.122Z,9.86
2019-04-30T07:27:23.943Z,9.87
2019-04-30T07:29:49.497Z,9.85
2019-04-30T07:32:15.435Z,9.85
2019-04-30T07:34:41.227Z,9.79
2019-04-30T07:37:14.586Z,9.74
2019-04-30T07:39:34.975Z,9.71
2019-04-30T07:42:01.053Z,9.82
2019-04-30T07:44:33.704Z,9.88
2019-04-30T07:46:54.880Z,9.85
2019-04-30T07:49:20.904Z,9.98
2019-04-30T07:51:47.487Z,10.01
2019-04-30T07:54:13.947Z,10.16
2019-04-30T07:56:41.663Z,10.11
2019-04-30T07:59:11.045Z,9.94
2019-04-30T08:01:35.833Z,9.92
2019-04-30T08:04:08.673Z,10.03
2019-04-30T08:06:34.865Z,10.02
2019-04-30T08:09:01.465Z,9.65
2019-04-30T08:11:29.366Z,10.01
2019-04-30T08:13:55.303Z,10.10
2019-04-30T08:16:21.348Z,10.07
2019-04-30T08:18:49.132Z,10.09
2019-04-30T08:21:14.919Z,10.13
2019-04-30T08:23:40.777Z,10.23
2019-04-30T08:26:08.699Z,10.29
2019-04-30T08:28:34.652Z,10.31
2019-04-30T08:31:00.470Z,10.42
2019-04-30T08:33:26.555Z,10.44
2019-04-30T08:35:52.382Z,10.53
2019-04-30T08:38:19.165Z,10.55
2019-04-30T08:40:55.507Z,10.51
2019-04-30T08:43:13.112Z,10.45
2019-04-30T08:45:39.063Z,10.47
2019-04-30T08:48:05.098Z,10.49
2019-04-30T08:50:31.692Z,10.55
2019-04-30T08:52:59.399Z,10.61
2019-04-30T08:55:25.356Z,10.59
2019-04-30T08:57:51.188Z,10.56
2019-04-30T09:00:19.134Z,10.49
2019-04-30T09:02:45.328Z,10.69
2019-04-30T09:05:13.455Z,10.84
2019-04-30T09:07:39.506Z,10.89
2019-04-30T09:10:05.542Z,10.98
2019-04-30T09:12:31.369Z,10.98
2019-04-30T09:14:59.050Z,11.05
2019-04-30T09:17:25.267Z,11.03
2019-04-30T09:19:51.372Z,11.12
2019-04-30T09:22:19.297Z,11.21
2019-04-30T09:24:44.923Z,11.28
2019-04-30T09:27:10.895Z,11.17
2019-04-30T09:29:36.661Z,11.06
2019-04-30T09:32:02.724Z,10.99
2019-04-30T09:34:29.208Z,11.02
2019-04-30T09:36:55.186Z,11.14
2019-04-30T09:39:23.136Z,11.08
2019-04-30T09:41:49.602Z,11.02
2019-04-30T09:44:15.804Z,10.99
2019-04-30T09:46:41.698Z,11.13
2019-04-30T09:49:09.539Z,10.95
2019-04-30T09:51:35.375Z,11.03
2019-04-30T09:54:03.721Z,10.89
2019-04-30T09:56:29.476Z,10.85
2019-04-30T09:58:55.452Z,10.91
2019-04-30T10:01:22.153Z,11.03
2019-04-30T10:03:50.458Z,10.99
2019-04-30T10:06:16.055Z,10.85
2019-04-30T10:08:48.329Z,10.81
2019-04-30T10:11:11.518Z,11.02
2019-04-30T10:13:37.344Z,11.09
2019-04-30T10:16:11.097Z,11.15
2019-04-30T10:18:37.176Z,11.32
2019-04-30T10:21:03.419Z,11.60
2019-04-30T10:23:30.329Z,11.44
2019-04-30T10:25:56.533Z,11.47
2019-04-30T10:28:22.433Z,11.61
2019-04-30T10:30:48.274Z,11.64
2019-04-30T10:33:14.083Z,11.65
2019-04-30T10:35:39.905Z,11.81
2019-04-30T10:38:05.730Z,11.73
2019-04-30T10:40:31.778Z,11.85
2019-04-30T10:42:58.662Z,11.98
2019-04-30T10:45:24.632Z,11.84
2019-04-30T10:47:50.416Z,11.60
2019-04-30T10:50:16.414Z,11.57
2019-04-30T10:52:42.527Z,11.54
2019-04-30T10:55:09.380Z,11.67
2019-04-30T10:57:35.651Z,11.64
2019-04-30T11:00:07.800Z,11.77
2019-04-30T11:02:33.569Z,11.88
2019-04-30T11:04:59.385Z,11.95
2019-04-30T11:07:25.203Z,12.04
2019-04-30T11:09:51.117Z,12.13
2019-04-30T11:12:16.910Z,12.16
2019-04-30T11:14:42.739Z,12.50
2019-04-30T11:17:09.918Z,12.56
2019-04-30T11:19:36.130Z,12.68
2019-04-30T11:22:02.352Z,12.85
2019-04-30T11:24:36.614Z,13.16
2019-04-30T11:26:58.758Z,13.60
2019-04-30T11:29:24.520Z,14.15
2019-04-30T11:31:52.553Z,14.63
2019-04-30T11:34:18.784Z,14.51
2019-04-30T11:36:44.610Z,14.24
2019-04-30T11:39:12.530Z,14.34
2019-04-30T11:41:39.519Z,14.93
2019-04-30T11:44:05.498Z,14.96
2019-04-30T11:46:35.104Z,14.62
2019-04-30T11:49:00.939Z,14.33
2019-04-30T11:51:28.982Z,14.46
2019-04-30T11:53:54.732Z,14.90
2019-04-30T11:56:20.793Z,15.76
2019-04-30T11:58:48.791Z,16.49
2019-04-30T12:01:16.496Z,16.01
2019-04-30T12:03:42.814Z,15.48
2019-04-30T12:06:08.998Z,15.29
2019-04-30T12:08:54.829Z,15.45
2019-04-30T12:11:22.569Z,15.63
2019-04-30T12:13:48.415Z,16.22
2019-04-30T12:16:14.198Z,16.75
2019-04-30T12:18:40.052Z,16.79
2019-04-30T12:21:05.846Z,17.27
2019-04-30T12:23:31.652Z,17.58
2019-04-30T12:26:00.992Z,18.32
2019-04-30T12:28:27.262Z,18.51
2019-04-30T12:30:53.047Z,18.45
2019-04-30T12:33:19.273Z,18.55
2019-04-30T12:35:45.168Z,18.23
2019-04-30T12:38:12.282Z,18.23
2019-04-30T12:40:38.981Z,18.08
2019-04-30T12:43:05.265Z,17.34
2019-04-30T12:45:31.110Z,17.34
2019-04-30T12:48:11.044Z,17.60
2019-04-30T12:50:55.571Z,18.48
2019-04-30T12:53:26.064Z,18.74
2019-04-30T12:56:00.400Z,18.18
2019-04-30T12:58:26.377Z,18.18
2019-04-30T13:00:52.166Z,18.11
2019-04-30T13:03:18.011Z,18.51
2019-04-30T13:05:44.368Z,18.98
2019-04-30T13:08:11.201Z,19.40
2019-04-30T13:10:38.149Z,19.82
2019-04-30T13:13:04.777Z,20.33
2019-04-30T13:15:31.212Z,20.71
2019-04-30T13:17:58.573Z,20.27
2019-04-30T13:20:24.757Z,20.09
2019-04-30T13:22:50.613Z,19.73
2019-04-30T13:25:29.566Z,20.00
2019-04-30T13:27:52.219Z,20.39
2019-04-30T13:30:23.248Z,19.94
2019-04-30T13:33:03.205Z,19.89
2019-04-30T13:35:29.109Z,20.12
2019-04-30T13:38:03.125Z,20.06
2019-04-30T13:40:46.748Z,19.56
2019-04-30T13:43:14.982Z,19.82
2019-04-30T13:45:40.785Z,20.03
2019-04-30T13:48:06.648Z,19.31
2019-04-30T13:50:32.461Z,19.25
2019-04-30T13:52:58.851Z,19.61
2019-04-30T13:55:24.981Z,19.76
2019-04-30T13:57:51.114Z,19.53
2019-04-30T14:00:21.596Z,19.16
2019-04-30T14:02:49.325Z,19.07
2019-04-30T14:05:17.125Z,18.98
2019-04-30T14:07:53.697Z,19.14
2019-04-30T14:10:20.470Z,18.84
2019-04-30T14:12:48.947Z,19.06
2019-04-30T14:15:15.350Z,19.24
2019-04-30T14:17:41.440Z,19.49
2019-04-30T14:20:07.620Z,19.59
2019-04-30T14:22:34.342Z,19.62
2019-04-30T14:25:00.489Z,19.76
2019-04-30T14:27:26.293Z,19.97
2019-04-30T14:29:52.105Z,19.56
2019-04-30T14:32:18.602Z,19.47
2019-04-30T14:34:44.446Z,19.65
2019-04-30T14:37:10.236Z,19.29
2019-04-30T14:39:36.298Z,19.27
2019-04-30T14:42:03.192Z,19.55
2019-04-30T14:44:32.598Z,19.56
2019-04-30T14:47:20.286Z,19.20
2019-04-30T14:49:59.133Z,18.96
2019-04-30T14:52:15.082Z,18.83
2019-04-30T14:54:43.077Z,18.88
2019-04-30T14:57:29.467Z,19.77
2019-04-30T15:00:02.076Z,20.73
2019-04-30T15:02:32.284Z,21.51
2019-04-30T15:04:58.788Z,22.02
2019-04-30T15:07:24.809Z,22.12
2019-04-30T15:09:54.154Z,21.67
2019-04-30T15:12:20.067Z,21.22
2019-04-30T15:14:45.900Z,21.27
2019-04-30T15:17:11.689Z,21.39
2019-04-30T15:19:37.742Z,21.78
2019-04-30T15:22:04.015Z,21.91
2019-04-30T15:24:32.128Z,21.25
2019-04-30T15:26:58.171Z,21.06
2019-04-30T15:29:24.047Z,20.86
2019-04-30T15:31:50.122Z,21.39
2019-04-30T15:34:15.924Z,21.67
2019-04-30T15:36:41.765Z,21.29
2019-04-30T15:39:10.140Z,20.66
2019-04-30T15:41:35.931Z,20.82
2019-04-30T15:44:01.773Z,20.97
2019-04-30T15:46:27.620Z,21.03
2019-04-30T15:48:53.855Z,21.04
2019-04-30T15:51:19.630Z,20.99
2019-04-30T15:53:45.450Z,21.05
2019-04-30T15:56:11.236Z,21.12
2019-04-30T15:58:41.886Z,21.44
2019-04-30T16:01:09.700Z,21.47
2019-04-30T16:03:37.398Z,21.25
2019-04-30T16:06:03.572Z,21.38
2019-04-30T16:08:31.329Z,21.52
2019-04-30T16:11:10.364Z,21.42
2019-04-30T16:13:54.041Z,21.64
2019-04-30T16:16:19.873Z,20.90
2019-04-30T16:18:49.367Z,20.83
2019-04-30T16:21:15.572Z,20.64
2019-04-30T16:23:41.634Z,20.91
2019-04-30T16:26:07.714Z,20.70
2019-04-30T16:28:33.810Z,20.99
2019-04-30T16:30:59.798Z,21.12
2019-04-30T16:33:25.546Z,21.23
2019-04-30T16:35:51.366Z,21.49
2019-04-30T16:38:18.357Z,21.03
2019-04-30T16:40:44.887Z,20.83
2019-04-30T16:43:10.997Z,20.46
2019-04-30T16:45:38.838Z,20.14
2019-04-30T16:48:05.092Z,19.69
2019-04-30T16:50:30.888Z,19.46
2019-04-30T16:52:56.711Z,19.62
2019-04-30T16:55:22.561Z,19.38
2019-04-30T16:57:49.827Z,19.36
2019-04-30T17:00:16.473Z,19.44
2019-04-30T17:02:44.437Z,19.40
2019-04-30T17:05:21.054Z,19.32
2019-04-30T17:07:51.556Z,19.27
2019-04-30T17:10:22.337Z,19.23
2019-04-30T17:12:56.098Z,18.95
2019-04-30T17:15:23.821Z,18.60
2019-04-30T17:17:50.033Z,18.61
2019-04-30T17:20:16.190Z,18.42
2019-04-30T17:22:42.590Z,18.28
2019-04-30T17:25:08.493Z,18.10
2019-04-30T17:27:34.348Z,17.73
2019-04-30T17:30:00.414Z,17.69
2019-04-30T17:32:28.460Z,17.20
2019-04-30T17:34:54.231Z,17.08
2019-04-30T17:37:20.045Z,17.08
2019-04-30T17:39:46.158Z,17.00
2019-04-30T17:42:12.528Z,16.89
2019-04-30T17:44:39.753Z,16.59
2019-04-30T17:47:05.612Z,16.59
2019-04-30T17:49:31.446Z,16.48
2019-04-30T17:51:59.115Z,16.26
2019-04-30T17:54:24.982Z,16.10
2019-04-30T17:56:51.054Z,16.13
2019-04-30T17:59:16.852Z,16.10
2019-04-30T18:01:44.577Z,15.92
2019-04-30T18:04:10.397Z,15.84
2019-04-30T18:06:36.692Z,15.77
2019-04-30T18:09:05.689Z,15.66
2019-04-30T18:11:31.780Z,15.59
2019-04-30T18:13:59.018Z,15.49
2019-04-30T18:16:24.882Z,15.46
2019-04-30T18:18:52.612Z,15.30
2019-04-30T18:21:28.776Z,15.29
2019-04-30T18:24:02.856Z,15.24
2019-04-30T18:26:28.736Z,15.13
2019-04-30T18:28:54.580Z,14.94
2019-04-30T18:31:20.565Z,14.85
2019-04-30T18:33:46.511Z,14.80
2019-04-30T18:36:12.684Z,14.68
2019-04-30T18:38:39.149Z,14.48
2019-04-30T18:41:05.118Z,14.40
2019-04-30T18:43:31.244Z,14.30
2019-04-30T18:45:57.055Z,14.14
2019-04-30T18:48:22.854Z,13.99
2019-04-30T18:50:48.718Z,14.03
2019-04-30T18:53:18.468Z,13.96
2019-04-30T18:55:44.351Z,13.82
2019-04-30T18:58:10.160Z,13.64
2019-04-30T19:00:43.480Z,13.47
2019-04-30T19:03:09.693Z,13.40
2019-04-30T19:05:36.059Z,13.27
2019-04-30T19:08:19.796Z,13.21
2019-04-30T19:10:53.831Z,13.23
2019-04-30T19:13:29.898Z,13.09
2019-04-30T19:16:21.803Z,12.90
2019-04-30T19:19:00.948Z,12.75
2019-04-30T19:21:26.930Z,12.55
2019-04-30T19:23:53.040Z,12.53
2019-04-30T19:26:20.792Z,12.42
2019-04-30T19:28:46.576Z,12.40
2019-04-30T19:31:12.568Z,12.31
2019-04-30T19:33:38.975Z,12.21
2019-04-30T19:36:04.972Z,12.21
2019-04-30T19:38:30.829Z,12.08
2019-04-30T19:40:56.623Z,11.88
2019-04-30T19:43:22.427Z,11.93
2019-04-30T19:45:49.007Z,11.85
2019-04-30T19:48:16.297Z,11.78
2019-04-30T19:50:42.412Z,11.78
2019-04-30T19:53:08.846Z,11.63
2019-04-30T19:55:34.713Z,11.59
2019-04-30T19:58:00.812Z,11.63
2019-04-30T20:00:26.603Z,11.53
2019-04-30T20:02:52.413Z,11.41
2019-04-30T20:05:19.438Z,11.42
2019-04-30T20:07:45.367Z,11.35
2019-04-30T20:10:11.692Z,11.28
2019-04-30T20:12:38.849Z,11.19
2019-04-30T20:15:16.443Z,11.00
2019-04-30T20:17:33.374Z,10.96
2019-04-30T20:19:59.221Z,10.94
2019-04-30T20:22:25.302Z,10.83
2019-04-30T20:24:51.130Z,10.72
2019-04-30T20:27:18.983Z,10.64
2019-04-30T20:29:44.903Z,10.74
2019-04-30T20:32:10.734Z,10.62
2019-04-30T20:34:36.539Z,10.35
2019-04-30T20:37:02.745Z,10.25
2019-04-30T20:39:30.697Z,10.21
2019-04-30T20:41:56.488Z,10.11
2019-04-30T20:44:22.422Z,10.05
2019-04-30T20:46:49.102Z,10.04
2019-04-30T20:49:14.992Z,9.98
2019-04-30T20:51:52.687Z,10.08
2019-04-30T20:54:09.123Z,9.92
2019-04-30T20:56:35.011Z,9.90
2019-04-30T20:59:04.616Z,9.79
2019-04-30T21:01:29.484Z,9.79
2019-04-30T21:03:55.355Z,9.68
2019-04-30T21:06:21.457Z,9.72
2019-04-30T21:08:47.636Z,9.69
2019-04-30T21:11:13.461Z,9.71
2019-04-30T21:13:39.349Z,9.66
2019-04-30T21:16:05.342Z,9.59
2019-04-30T21:18:32.565Z,9.54
2019-04-30T21:20:59.637Z,9.41
2019-04-30T21:23:25.767Z,9.47
2019-04-30T21:25:51.582Z,9.36
2019-04-30T21:28:19.540Z,9.38
2019-04-30T21:30:45.124Z,9.25
2019-04-30T21:33:12.853Z,9.09
2019-04-30T21:35:40.567Z,9.14
2019-04-30T21:38:06.722Z,9.08
2019-04-30T21:40:32.616Z,9.13
2019-04-30T21:42:58.732Z,9.09
2019-04-30T21:45:24.556Z,9.06
2019-04-30T21:47:56.350Z,9.04
2019-04-30T21:50:19.719Z,9.06
2019-04-30T21:52:45.813Z,9.03
2019-04-30T21:55:11.773Z,8.98
2019-04-30T21:57:39.214Z,9.01
2019-04-30T22:02:59.827Z,8.96
2019-04-30T22:05:25.674Z,8.88
2019-04-30T22:07:51.484Z,8.89
2019-04-30T22:10:17.926Z,8.91
2019-04-30T22:12:43.737Z,8.84
2019-04-30T22:15:11.722Z,8.78
2019-04-30T22:17:39.180Z,8.67
2019-04-30T22:20:07.276Z,8.75
2019-04-30T22:22:34.550Z,8.76
2019-04-30T22:25:00.335Z,8.75
2019-04-30T22:27:26.438Z,8.70
2019-04-30T22:29:52.213Z,8.62
2019-04-30T22:32:18.028Z,8.63
2019-04-30T22:34:43.807Z,8.65
2019-04-30T22:37:09.995Z,8.64
2019-04-30T22:39:39.544Z,8.50
2019-04-30T22:42:31.916Z,8.45
2019-04-30T22:44:59.331Z,8.48
2019-04-30T22:47:25.119Z,8.35
2019-04-30T22:49:50.906Z,8.31
2019-04-30T22:52:16.723Z,8.35
2019-04-30T22:54:42.764Z,8.25
2019-04-30T22:57:08.859Z,8.16
2019-04-30T22:59:34.900Z,8.10
2019-04-30T23:02:02.607Z,8.06
2019-04-30T23:04:36.547Z,8.07
2019-04-30T23:07:02.575Z,8.06
2019-04-30T23:09:28.360Z,8.06
2019-04-30T23:11:54.387Z,8.11
2019-04-30T23:14:20.478Z,8.02
2019-04-30T23:16:46.271Z,8.04
2019-04-30T23:19:12.073Z,7.94
2019-04-30T23:21:37.858Z,7.87
2019-04-30T23:24:03.668Z,7.91
2019-04-30T23:26:29.729Z,7.86
2019-04-30T23:28:55.812Z,7.81
2019-04-30T23:31:21.600Z,7.83
2019-04-30T23:33:47.422Z,7.83
2019-04-30T23:36:13.209Z,7.77
2019-04-30T23:38:39.005Z,7.61
2019-04-30T23:41:04.822Z,7.37
2019-04-30T23:43:30.913Z,7.20
2019-04-30T23:45:56.736Z,7.18
2019-04-30T23:48:22.523Z,7.26
2019-04-30T23:50:48.559Z,7.29
2019-04-30T23:53:14.367Z,7.34
2019-04-30T23:55:40.306Z,7.34
2019-04-30T23:58:06.145Z,7.30
